Terminal Aerodrome Forecast
Issued by NWS

Current Version | Previous Version | Text Only | Print | Product List | Glossary Off
Versions: 1 2 3 4 5 6 7 8 9 10 11 12 13 14 15 16 17

000
FTUS41 KPBZ 151726
TAFHLG
TAF
KHLG 151726Z 1518/1618 04010G18KT P6SM BKN200
     FM160100 10007KT P6SM SCT250
     FM161700 16008KT P6SM VCSH OVC050=

USA.gov is the U.S. government's official web portal to all federal, state and local government web resources and services.